createdAt,value
2023-01-12T00:29:26.402Z,101295.56
2023-01-12T00:32:01.045Z,101301.30
2023-01-12T00:34:33.500Z,101294.67
2023-01-12T00:37:05.969Z,101294.67
2023-01-12T00:39:40.777Z,101299.02
2023-01-12T00:42:31.589Z,101292.41
2023-01-12T00:45:22.768Z,101295.02
2023-01-12T00:47:55.320Z,101299.83
2023-01-12T00:50:28.153Z,101302.02
2023-01-12T00:53:00.606Z,101290.13
2023-01-12T00:55:32.994Z,101286.61
2023-01-12T00:58:05.543Z,101282.69
2023-01-12T01:00:37.826Z,101268.61
2023-01-12T01:03:10.293Z,101283.15
2023-01-12T01:05:42.606Z,101275.66
2023-01-12T01:08:15.085Z,101277.45
2023-01-12T01:10:47.959Z,101279.23
2023-01-12T01:13:20.605Z,101279.70
2023-01-12T01:15:54.541Z,101279.70
2023-01-12T01:18:27.985Z,101288.48
2023-01-12T01:21:00.776Z,101293.34
2023-01-12T01:23:35.781Z,101292.86
2023-01-12T01:26:10.650Z,101299.06
2023-01-12T01:28:44.528Z,101303.93
2023-01-12T01:31:23.090Z,101300.37
2023-01-12T01:33:55.574Z,101305.62
2023-01-12T01:36:28.701Z,101308.64
2023-01-12T01:39:01.463Z,101307.72
2023-01-12T01:41:34.537Z,101313.39
2023-01-12T01:44:33.899Z,101303.66
2023-01-12T01:47:19.659Z,101305.41
2023-01-12T01:49:53.974Z,101308.94
2023-01-12T01:52:37.107Z,101317.27
2023-01-12T01:55:35.387Z,101317.66
2023-01-12T01:58:15.412Z,101312.78
2023-01-12T02:00:47.817Z,101315.00
2023-01-12T02:03:20.707Z,101313.24
2023-01-12T02:05:54.405Z,101321.19
2023-01-12T02:08:51.995Z,101322.95
2023-01-12T02:11:42.286Z,101316.75
2023-01-12T02:14:32.782Z,101314.95
2023-01-12T02:17:10.179Z,101312.72
2023-01-12T02:20:34.298Z,101309.24
2023-01-12T02:23:27.869Z,101310.53
2023-01-12T02:26:19.535Z,101318.91
2023-01-12T02:29:16.621Z,101311.41
2023-01-12T02:32:02.559Z,101308.31
2023-01-12T02:35:10.674Z,101301.63
2023-01-12T02:38:02.711Z,101295.87
2023-01-12T02:41:12.461Z,101300.38
2023-01-12T02:43:44.789Z,101299.55
2023-01-12T02:46:24.713Z,101296.49
2023-01-12T02:49:08.488Z,101297.81
2023-01-12T02:52:09.462Z,101296.08
2023-01-12T02:54:42.052Z,101292.99
2023-01-12T02:57:14.517Z,101294.27
2023-01-12T02:59:48.398Z,101292.94
2023-01-12T03:02:24.919Z,101292.47
2023-01-12T03:04:57.354Z,101285.84
2023-01-12T03:07:40.491Z,101286.80
2023-01-12T03:10:57.095Z,101289.06
2023-01-12T03:13:30.645Z,101290.83
2023-01-12T03:16:03.554Z,101292.55
2023-01-12T03:18:45.543Z,101284.59
2023-01-12T03:21:28.327Z,101286.34
2023-01-12T03:24:15.886Z,101287.28
2023-01-12T03:26:52.429Z,101283.32
2023-01-12T03:29:51.531Z,101282.88
2023-01-12T03:32:24.649Z,101274.95
2023-01-12T03:34:57.329Z,101265.72
2023-01-12T03:37:42.510Z,101268.37
2023-01-12T03:40:22.885Z,101263.97
2023-01-12T03:43:29.112Z,101260.41
2023-01-12T03:46:22.904Z,101254.19
2023-01-12T03:49:03.178Z,101240.50
2023-01-12T03:51:38.293Z,101246.66
2023-01-12T03:54:12.114Z,101231.67
2023-01-12T03:56:45.608Z,101237.34
2023-01-12T03:59:18.008Z,101237.72
2023-01-12T04:01:51.767Z,101240.80
2023-01-12T04:04:24.647Z,101233.70
2023-01-12T04:06:57.049Z,101242.98
2023-01-12T04:09:29.644Z,101234.19
2023-01-12T04:12:11.009Z,101221.40
2023-01-12T04:14:47.800Z,101222.67
2023-01-12T04:17:21.272Z,101219.06
2023-01-12T04:19:54.165Z,101221.23
2023-01-12T04:22:45.220Z,101219.39
2023-01-12T04:25:21.204Z,101224.66
2023-01-12T04:28:02.393Z,101219.39
2023-01-12T04:30:35.563Z,101219.43
2023-01-12T04:33:09.506Z,101215.45
2023-01-12T04:35:41.927Z,101206.16
2023-01-12T04:38:16.280Z,101209.17
2023-01-12T04:40:52.406Z,101215.80
2023-01-12T04:43:25.453Z,101210.49
2023-01-12T04:45:57.843Z,101209.17
2023-01-12T04:48:30.271Z,101210.05
2023-01-12T04:51:03.187Z,101200.36
2023-01-12T04:53:35.649Z,101200.80
2023-01-12T04:56:30.011Z,101195.06
2023-01-12T04:59:02.465Z,101195.95
2023-01-12T05:01:36.954Z,101203.86
2023-01-12T05:04:09.929Z,101202.47
2023-01-12T05:06:42.392Z,101204.20
2023-01-12T05:09:32.913Z,101202.42
2023-01-12T05:12:05.856Z,101202.44
2023-01-12T05:14:38.405Z,101205.52
2023-01-12T05:17:11.340Z,101199.36
2023-01-12T05:19:43.899Z,101205.51
2023-01-12T05:22:16.311Z,101201.59
2023-01-12T05:24:48.699Z,101199.36
2023-01-12T05:27:21.541Z,101200.63
2023-01-12T05:29:55.918Z,101192.20
2023-01-12T05:32:29.972Z,101189.99
2023-01-12T05:35:02.464Z,101188.25
2023-01-12T05:37:35.092Z,101198.82
2023-01-12T05:40:08.127Z,101192.19
2023-01-12T05:42:59.415Z,101188.63
2023-01-12T05:45:31.739Z,101186.42
2023-01-12T05:48:04.694Z,101195.67
2023-01-12T05:50:38.153Z,101190.34
2023-01-12T05:53:14.277Z,101178.84
2023-01-12T05:55:46.773Z,101182.39
2023-01-12T05:58:19.192Z,101187.22
2023-01-12T06:00:51.560Z,101194.20
2023-01-12T06:03:24.223Z,101200.38
2023-01-12T06:05:58.598Z,101199.47
2023-01-12T06:08:31.515Z,101206.54
2023-01-12T06:11:05.699Z,101200.79
2023-01-12T06:13:56.873Z,101197.27
2023-01-12T06:16:29.751Z,101186.24
2023-01-12T06:19:02.703Z,101185.34
2023-01-12T06:21:35.716Z,101188.00
2023-01-12T06:24:08.373Z,101187.53
2023-01-12T06:26:42.371Z,101181.73
2023-01-12T06:29:14.701Z,101183.03
2023-01-12T06:31:47.243Z,101178.05
2023-01-12T06:34:20.680Z,101175.78
2023-01-12T06:36:53.127Z,101177.52
2023-01-12T06:39:25.561Z,101174.41
2023-01-12T06:42:15.857Z,101175.73
2023-01-12T06:44:49.033Z,101176.59
2023-01-12T06:47:22.278Z,101172.61
2023-01-12T06:49:54.776Z,101172.61
2023-01-12T06:52:29.712Z,101166.88
2023-01-12T06:55:02.183Z,101159.38
2023-01-12T06:57:34.816Z,101164.15
2023-01-12T07:00:12.055Z,101159.72
2023-01-12T07:02:44.560Z,101166.33
2023-01-12T07:05:17.080Z,101165.85
2023-01-12T07:07:49.602Z,101166.30
2023-01-12T10:46:22.070Z,101103.70
2023-01-12T10:48:56.570Z,101099.91
2023-01-12T10:54:20.251Z,101100.63
2023-01-12T10:57:22.955Z,101095.73
2023-01-12T11:00:02.089Z,101099.06
2023-01-12T11:02:44.318Z,101110.73
2023-01-12T11:05:38.824Z,101094.00
2023-01-12T11:08:26.816Z,101105.09
2023-01-12T11:10:59.843Z,101097.16
2023-01-12T11:13:34.715Z,101109.08
2023-01-12T11:16:20.929Z,101106.52
2023-01-12T11:19:01.123Z,101100.79
2023-01-12T11:21:38.355Z,101100.31
2023-01-12T11:24:41.597Z,101092.31
2023-01-12T11:27:30.683Z,101093.52
2023-01-12T11:30:17.616Z,101101.84
2023-01-12T11:33:04.531Z,101099.03
2023-01-12T11:36:06.718Z,101097.09
2023-01-12T11:38:43.922Z,101093.55
2023-01-12T11:41:34.307Z,101096.34
2023-01-12T11:44:26.710Z,101097.32
2023-01-12T11:47:11.052Z,101082.30
2023-01-12T11:50:08.815Z,101088.37
2023-01-12T11:52:41.851Z,101082.70
2023-01-12T11:55:17.147Z,101082.20
2023-01-12T11:58:00.823Z,101076.83
2023-01-12T12:01:03.919Z,101079.07
2023-01-12T12:04:03.785Z,101068.86
2023-01-12T12:07:00.805Z,101071.52
2023-01-12T12:09:47.259Z,101054.14
2023-01-12T12:12:39.666Z,101054.55
2023-01-12T12:15:29.187Z,101065.59
2023-01-12T12:18:39.665Z,101050.23
2023-01-12T12:21:41.062Z,101054.72
2023-01-12T12:25:02.323Z,101054.63
2023-01-12T12:27:58.147Z,101053.30
2023-01-12T12:30:44.541Z,101047.98
2023-01-12T12:33:39.903Z,101044.91
2023-01-12T12:36:33.706Z,101038.84
2023-01-12T12:39:27.724Z,101033.98
2023-01-12T12:42:25.551Z,101034.86
2023-01-12T12:45:17.834Z,101034.89
2023-01-12T12:48:16.462Z,101049.63
2023-01-12T12:51:01.977Z,101048.78
2023-01-12T12:53:58.081Z,101052.70
2023-01-12T12:56:31.613Z,101053.14
2023-01-12T12:59:03.973Z,101060.67
2023-01-12T13:01:39.815Z,101054.31
2023-01-12T13:04:43.356Z,101049.31
2023-01-12T13:07:20.101Z,101052.38
2023-01-12T13:09:52.778Z,101059.39
2023-01-12T13:12:37.166Z,101053.53
2023-01-12T13:15:24.161Z,101049.04
2023-01-12T13:17:56.941Z,101047.54
2023-01-12T13:20:52.388Z,101049.66
2023-01-12T13:23:44.302Z,101060.28
2023-01-12T13:26:37.715Z,101050.67
2023-01-12T13:29:33.301Z,101053.84
2023-01-12T13:32:41.759Z,101068.52
2023-01-12T13:35:40.778Z,101058.38
2023-01-12T13:38:37.072Z,101060.21
2023-01-12T13:41:22.152Z,101061.95
2023-01-12T13:43:58.444Z,101069.41
2023-01-12T13:46:47.027Z,101065.80
2023-01-12T13:49:36.896Z,101063.14
2023-01-12T13:52:25.432Z,101062.30
2023-01-12T13:54:57.949Z,101048.62
2023-01-12T13:57:32.720Z,101043.42
2023-01-12T14:00:11.805Z,101043.42
2023-01-12T14:02:47.252Z,101051.36
2023-01-12T14:05:39.688Z,101050.50
2023-01-12T14:08:36.824Z,101056.73
2023-01-12T14:11:24.616Z,101059.45
2023-01-12T14:14:09.284Z,101061.30
2023-01-12T17:52:04.342Z,101017.14
2023-01-12T17:54:38.353Z,101019.41
2023-01-12T17:57:10.895Z,101029.16
2023-01-12T17:59:43.433Z,101026.78
2023-01-12T18:02:16.738Z,101020.48
2023-01-12T18:04:49.390Z,101016.02
2023-01-12T18:07:24.107Z,101021.37
2023-01-12T18:09:56.714Z,101016.44
2023-01-12T18:12:30.330Z,101015.07
2023-01-12T18:15:03.671Z,101009.35
2023-01-12T18:17:36.237Z,101019.91
2023-01-12T18:20:09.124Z,101017.70
2023-01-12T18:22:41.621Z,101016.02
2023-01-12T18:25:14.994Z,101010.75
2023-01-12T18:27:47.874Z,101014.19
2023-01-12T18:30:20.716Z,101015.64
2023-01-12T18:32:53.599Z,101008.59
2023-01-12T18:35:26.429Z,101012.55
2023-01-12T18:37:58.999Z,101021.74
2023-01-12T18:40:31.504Z,101008.36
2023-01-12T18:43:04.188Z,101020.34
2023-01-12T18:45:36.899Z,101007.68
2023-01-12T18:48:24.331Z,101010.47
2023-01-12T18:51:14.620Z,101007.88
2023-01-12T18:53:47.303Z,101010.97
2023-01-12T18:56:20.440Z,101014.23
2023-01-12T18:58:53.685Z,101011.16
2023-01-12T19:01:26.458Z,101010.85
2023-01-12T19:03:59.723Z,101022.83
2023-01-12T19:06:43.100Z,101016.60
2023-01-12T19:09:33.263Z,101019.61
2023-01-12T19:12:06.794Z,101015.47
2023-01-12T19:14:56.934Z,101004.41
2023-01-12T19:17:30.347Z,101013.79
2023-01-12T19:20:25.460Z,101013.41
2023-01-12T19:23:15.667Z,101015.59
2023-01-12T19:26:00.131Z,101020.45
2023-01-12T19:28:34.859Z,101014.73
2023-01-12T19:31:11.098Z,101018.69
2023-01-12T19:33:44.030Z,101018.25
2023-01-12T19:36:16.664Z,101015.69
2023-01-12T19:38:54.115Z,101010.88
2023-01-12T19:41:44.238Z,101005.12
2023-01-12T19:44:16.535Z,101011.36
2023-01-12T19:46:48.985Z,101011.77
2023-01-12T19:49:21.340Z,101019.22
2023-01-12T19:51:53.782Z,101023.63
2023-01-12T19:54:26.304Z,101025.05
2023-01-12T19:56:58.866Z,101026.72
2023-01-12T19:59:31.239Z,101023.56
2023-01-12T20:02:04.176Z,101032.50
2023-01-12T20:04:37.129Z,101021.91
2023-01-12T20:07:10.002Z,101033.83
2023-01-12T20:09:42.651Z,101028.08
2023-01-12T20:12:16.832Z,101030.45
2023-01-12T20:14:49.161Z,101022.07
2023-01-12T20:17:21.690Z,101021.94
2023-01-12T20:19:54.070Z,101018.78
2023-01-12T20:22:27.855Z,101013.34
2023-01-12T20:25:01.744Z,101016.98
2023-01-12T20:30:25.294Z,101027.16
2023-01-12T20:32:52.924Z,101026.22
2023-01-12T20:35:25.647Z,101030.07
2023-01-12T20:37:58.106Z,101019.83
2023-01-12T20:40:30.473Z,101028.11
2023-01-12T20:43:02.968Z,101023.27
2023-01-12T20:45:35.554Z,101018.94
2023-01-12T20:48:11.318Z,101021.59
2023-01-12T20:50:46.403Z,101019.45
2023-01-12T20:53:19.374Z,101017.39
2023-01-12T20:55:52.130Z,101017.80
2023-01-12T20:58:25.242Z,101014.11
2023-01-12T21:00:57.933Z,101019.31
2023-01-12T21:03:30.723Z,101022.31
2023-01-12T21:06:03.209Z,101026.37
2023-01-12T21:08:36.533Z,101025.11
2023-01-12T21:11:09.149Z,101029.63
2023-01-12T21:13:42.083Z,101034.17
2023-01-12T21:16:18.279Z,101047.45
2023-01-12T21:18:52.169Z,101042.97
2023-01-12T21:21:24.707Z,101046.92
2023-01-12T21:23:57.362Z,101047.68
2023-01-12T21:26:29.846Z,101040.91
2023-01-12T21:29:02.616Z,101047.99
2023-01-12T21:31:35.335Z,101046.09
2023-01-12T21:34:07.731Z,101047.39
2023-01-12T21:36:41.066Z,101048.31
2023-01-12T21:39:13.690Z,101049.73
2023-01-12T21:42:04.102Z,101051.19
2023-01-12T21:44:36.799Z,101042.05
2023-01-12T21:47:09.291Z,101047.16
2023-01-12T21:49:42.179Z,101045.52
2023-01-12T21:52:14.607Z,101030.95
2023-01-12T21:54:47.077Z,101037.64
2023-01-12T21:57:19.482Z,101036.88
2023-01-12T21:59:52.027Z,101028.45
2023-01-12T22:02:25.697Z,101036.77
2023-01-12T22:04:58.120Z,101037.55
2023-01-12T22:07:30.623Z,101029.06
2023-01-12T22:10:22.096Z,101026.75
2023-01-12T22:12:57.114Z,101019.09
2023-01-12T22:15:30.724Z,101014.23
2023-01-12T22:18:03.252Z,101004.41
2023-01-12T22:20:35.820Z,100998.52
2023-01-12T22:23:09.105Z,101005.19
2023-01-12T22:25:41.674Z,100985.75
2023-01-12T22:28:14.685Z,100986.59
2023-01-12T22:30:47.253Z,100989.56
2023-01-12T22:33:19.863Z,100983.88
2023-01-12T22:35:52.515Z,100991.40
2023-01-12T22:38:24.919Z,100992.86
2023-01-12T22:40:58.058Z,100985.47
2023-01-12T22:43:30.482Z,100993.40
2023-01-12T22:46:03.014Z,100994.13
2023-01-12T22:48:36.360Z,100990.52
2023-01-12T22:51:09.081Z,100992.22
2023-01-12T22:53:42.081Z,100997.50
2023-01-12T22:56:15.612Z,100996.11
2023-01-12T22:58:51.264Z,100997.74
2023-01-12T23:01:26.758Z,101001.62
2023-01-12T23:03:59.355Z,100999.95
2023-01-12T23:06:31.860Z,100997.30
2023-01-12T23:09:05.106Z,100996.37
2023-01-12T23:11:37.706Z,100990.28
2023-01-12T23:14:10.704Z,100984.94
2023-01-12T23:16:43.245Z,100985.75
2023-01-12T23:19:15.956Z,100985.20
2023-01-12T23:21:48.947Z,100987.42
2023-01-12T23:24:21.863Z,100979.52
2023-01-12T23:26:54.314Z,100976.86
2023-01-12T23:29:26.950Z,100969.34
2023-01-12T23:31:59.479Z,100973.28
2023-01-12T23:34:31.955Z,100967.50
2023-01-12T23:37:04.852Z,100969.48
2023-01-12T23:39:38.863Z,100970.19
2023-01-12T23:42:11.515Z,100966.34
2023-01-12T23:44:45.465Z,100979.17
2023-01-12T23:47:19.471Z,100975.23
2023-01-12T23:49:52.223Z,100980.44
2023-01-12T23:52:25.128Z,100982.17
2023-01-12T23:54:58.601Z,100978.05
2023-01-12T23:57:31.497Z,100986.44
